Time;durP1;ratioP1;P1;durP2;ratioP2;P2;SDS_P1;SDS_P2;PMS_P1;PMS_P2;Temp;Humidity;BMP_temperature;BMP_pressure;BME280_temperature;BME280_humidity;BME280_pressure;Samples;Min_cycle;Max_cycle;Signal;HPM_P1;HPM_P2
2024/01/23 00:02:38;;;;;;;;;;;7.30;99.90;;;;;;8443854;28;20000;-74
2024/01/23 00:06:40;;;;;;;;;;;7.30;99.90;;;;;;8462842;28;20380;-74
2024/01/23 00:10:42;;;;;;;;;;;7.40;99.90;;;;;;8456653;28;19919;-74
2024/01/23 00:14:43;;;;;;;;;;;7.40;99.90;;;;;;8458241;28;20462;-74
2024/01/23 00:18:45;;;;;;;;;;;7.50;99.90;;;;;;8443242;27;19931;-75
2024/01/23 00:22:47;;;;;;;;;;;7.60;99.90;;;;;;8460553;28;19928;-74
2024/01/23 00:26:49;;;;;;;;;;;7.60;99.90;;;;;;8456549;28;19964;-74
2024/01/23 00:30:50;;;;;;;;;;;7.60;99.90;;;;;;8457837;28;20284;-75
2024/01/23 00:34:52;;;;;;;;;;;7.70;99.90;;;;;;8462049;28;19934;-74
2024/01/23 00:38:54;;;;;;;;;;;7.70;99.90;;;;;;8458630;28;19920;-74
2024/01/23 00:42:56;;;;;;;;;;;7.70;99.90;;;;;;8460116;28;19966;-74
2024/01/23 00:46:57;;;;;;;;;;;7.70;99.90;;;;;;8462337;28;19920;-74
2024/01/23 00:50:59;;;;;;;;;;;7.70;99.90;;;;;;8438664;28;19965;-74
2024/01/23 00:55:03;;;;;;;;;;;7.60;99.90;;;;;;8460211;28;19945;-74
2024/01/23 00:59:04;;;;;;;;;;;7.60;99.90;;;;;;8439620;27;19920;-74
2024/01/23 01:03:06;;;;;;;;;;;7.50;99.90;;;;;;8461278;28;19928;-75
2024/01/23 01:07:08;;;;;;;;;;;7.50;99.90;;;;;;8462116;28;19968;-74
2024/01/23 01:11:10;;;;;;;;;;;7.50;99.90;;;;;;8457728;28;19920;-74
2024/01/23 01:15:11;;;;;;;;;;;7.40;99.90;;;;;;8459803;28;19923;-74
2024/01/23 01:19:13;;;;;;;;;;;7.30;99.90;;;;;;8458168;28;20401;-74
2024/01/23 01:23:16;;;;;;;;;;;7.30;99.90;;;;;;8440541;28;19982;-74
2024/01/23 01:27:18;;;;;;;;;;;7.30;99.90;;;;;;8452172;28;19920;-74
2024/01/23 01:31:20;;;;;;;;;;;7.30;99.90;;;;;;8438086;28;19927;-74
2024/01/23 01:35:22;;;;;;;;;;;7.30;99.90;;;;;;8460760;28;20370;-74
2024/01/23 01:39:24;;;;;;;;;;;7.30;99.90;;;;;;8438657;28;19961;-74
2024/01/23 01:43:26;;;;;;;;;;;7.20;99.90;;;;;;8439197;28;19933;-74
2024/01/23 01:47:28;;;;;;;;;;;7.20;99.90;;;;;;8459898;28;19927;-74
2024/01/23 01:51:30;;;;;;;;;;;7.10;99.90;;;;;;8457127;28;19971;-74
2024/01/23 01:55:32;;;;;;;;;;;7.10;99.90;;;;;;8458862;28;19920;-74
2024/01/23 01:59:34;;;;;;;;;;;7.10;99.90;;;;;;8456594;28;19927;-74
2024/01/23 02:03:35;;;;;;;;;;;7.10;99.90;;;;;;8457416;28;19975;-74
2024/01/23 02:07:38;;;;;;;;;;;7.10;99.90;;;;;;8459177;28;19920;-74
2024/01/23 02:11:56;;;;;;;;;;;7.10;99.90;;;;;;8439598;28;20325;-74
2024/01/23 02:15:58;;;;;;;;;;;7.00;99.90;;;;;;8440732;28;20405;-74
2024/01/23 02:20:00;;;;;;;;;;;7.00;99.90;;;;;;8458771;28;19919;-74
2024/01/23 02:24:02;;;;;;;;;;;7.00;99.90;;;;;;8438745;28;19955;-74
2024/01/23 02:28:03;;;;;;;;;;;7.00;99.90;;;;;;8442635;28;19920;-74
2024/01/23 02:32:05;;;;;;;;;;;7.10;99.90;;;;;;8442738;28;19919;-74
2024/01/23 02:36:08;;;;;;;;;;;7.00;99.90;;;;;;8440466;28;19928;-74
2024/01/23 02:40:10;;;;;;;;;;;7.00;99.90;;;;;;8458112;28;20267;-74
2024/01/23 02:44:12;;;;;;;;;;;7.00;99.90;;;;;;8456818;28;19923;-74
2024/01/23 02:48:13;;;;;;;;;;;7.00;99.90;;;;;;8459085;28;20299;-74
2024/01/23 02:52:15;;;;;;;;;;;7.10;99.90;;;;;;8448142;28;19924;-74
2024/01/23 02:56:17;;;;;;;;;;;7.10;99.90;;;;;;8458615;28;19923;-74
2024/01/23 03:00:19;;;;;;;;;;;7.20;99.90;;;;;;8450731;28;19920;-74
2024/01/23 03:04:21;;;;;;;;;;;7.20;99.90;;;;;;8452841;28;19927;-74
2024/01/23 03:08:23;;;;;;;;;;;7.20;99.90;;;;;;8449642;28;19998;-74
2024/01/23 03:12:26;;;;;;;;;;;7.30;99.90;;;;;;8454723;28;19923;-75
2024/01/23 03:16:28;;;;;;;;;;;7.20;99.90;;;;;;8459347;28;19932;-75
2024/01/23 03:20:30;;;;;;;;;;;7.20;99.90;;;;;;8456605;28;20341;-74
2024/01/23 03:24:32;;;;;;;;;;;7.10;99.90;;;;;;8438175;28;19919;-74
2024/01/23 03:28:34;;;;;;;;;;;7.10;99.90;;;;;;8447382;28;19935;-74
2024/01/23 03:32:36;;;;;;;;;;;7.00;99.90;;;;;;8450689;28;19926;-74
2024/01/23 03:36:38;;;;;;;;;;;7.00;99.90;;;;;;8462879;28;19924;-74
2024/01/23 03:40:39;;;;;;;;;;;6.90;99.90;;;;;;8442400;28;20241;-74
2024/01/23 03:44:41;;;;;;;;;;;6.80;99.90;;;;;;8450736;28;19920;-74
2024/01/23 03:48:43;;;;;;;;;;;6.80;99.90;;;;;;8463179;28;19919;-74
2024/01/23 03:52:44;;;;;;;;;;;6.80;99.90;;;;;;8460613;28;19946;-74
2024/01/23 03:56:46;;;;;;;;;;;6.80;99.90;;;;;;8462913;28;20267;-74
2024/01/23 04:00:57;;;;;;;;;;;6.70;99.90;;;;;;8462888;28;19923;-74
2024/01/23 04:04:59;;;;;;;;;;;6.70;99.90;;;;;;8461501;28;20443;-74
2024/01/23 04:09:02;;;;;;;;;;;6.70;99.90;;;;;;8461627;28;20383;-74
2024/01/23 04:13:04;;;;;;;;;;;6.60;99.90;;;;;;8437270;28;19966;-74
2024/01/23 04:17:06;;;;;;;;;;;6.60;99.90;;;;;;8444145;28;19919;-74
2024/01/23 04:21:07;;;;;;;;;;;6.60;99.90;;;;;;8461453;28;19967;-75
2024/01/23 04:25:10;;;;;;;;;;;6.60;99.90;;;;;;8436432;28;20018;-74
2024/01/23 04:29:11;;;;;;;;;;;6.60;99.90;;;;;;8442416;28;19927;-74
2024/01/23 04:33:13;;;;;;;;;;;6.60;99.90;;;;;;8453956;28;19970;-74
2024/01/23 04:37:15;;;;;;;;;;;6.60;99.90;;;;;;8460296;28;19991;-74
2024/01/23 04:41:22;;;;;;;;;;;6.60;99.90;;;;;;8440767;28;20458;-74
2024/01/23 04:45:24;;;;;;;;;;;6.60;99.90;;;;;;8459213;28;19919;-74
2024/01/23 04:49:25;;;;;;;;;;;6.70;99.90;;;;;;8461539;28;20121;-74
2024/01/23 04:53:32;;;;;;;;;;;6.80;99.90;;;;;;8460592;28;19924;-75
2024/01/23 04:57:35;;;;;;;;;;;6.80;99.90;;;;;;8439243;28;21357;-75
2024/01/23 05:01:37;;;;;;;;;;;6.90;99.90;;;;;;8460540;28;20387;-74
2024/01/23 05:05:38;;;;;;;;;;;6.90;99.90;;;;;;8461121;27;19950;-75
2024/01/23 05:09:40;;;;;;;;;;;6.90;99.90;;;;;;8444986;28;19931;-74
2024/01/23 05:13:42;;;;;;;;;;;7.00;99.90;;;;;;8458617;28;20276;-74
2024/01/23 05:17:44;;;;;;;;;;;6.90;99.90;;;;;;8457325;28;19932;-75
2024/01/23 05:21:46;;;;;;;;;;;6.90;99.90;;;;;;8459228;28;20357;-74
2024/01/23 05:25:47;;;;;;;;;;;6.90;99.90;;;;;;8433182;28;19924;-74
2024/01/23 05:29:49;;;;;;;;;;;6.90;99.90;;;;;;8429416;27;20335;-74
2024/01/23 05:33:51;;;;;;;;;;;6.80;99.90;;;;;;8431760;28;19928;-74
2024/01/23 05:37:52;;;;;;;;;;;6.80;99.90;;;;;;8444781;27;19924;-74
2024/01/23 05:41:54;;;;;;;;;;;6.70;99.90;;;;;;8456172;28;19923;-74
2024/01/23 05:45:56;;;;;;;;;;;6.80;99.90;;;;;;8461907;27;19953;-74
2024/01/23 05:49:58;;;;;;;;;;;6.70;99.90;;;;;;8437531;27;19927;-74
2024/01/23 05:54:00;;;;;;;;;;;6.60;99.90;;;;;;8454143;28;19931;-74
2024/01/23 05:58:01;;;;;;;;;;;6.60;99.90;;;;;;8468758;27;19975;-74
2024/01/23 06:02:04;;;;;;;;;;;6.60;99.90;;;;;;8460791;28;19988;-74
2024/01/23 06:06:06;;;;;;;;;;;6.50;99.90;;;;;;8452408;28;19988;-74
2024/01/23 06:10:09;;;;;;;;;;;6.40;99.90;;;;;;8455901;27;20340;-74
2024/01/23 06:14:11;;;;;;;;;;;6.40;99.90;;;;;;8441057;27;19928;-74
2024/01/23 06:18:12;;;;;;;;;;;6.30;99.90;;;;;;8455256;28;19924;-74
2024/01/23 06:22:14;;;;;;;;;;;6.30;99.90;;;;;;8460697;28;20011;-74
2024/01/23 06:26:17;;;;;;;;;;;6.20;99.90;;;;;;8455836;28;19936;-74
2024/01/23 06:30:18;;;;;;;;;;;6.20;99.90;;;;;;8446408;28;19931;-74
2024/01/23 06:34:21;;;;;;;;;;;6.20;99.90;;;;;;8459699;28;19955;-74
2024/01/23 06:38:23;;;;;;;;;;;6.20;99.90;;;;;;8443728;28;19988;-74
2024/01/23 06:42:25;;;;;;;;;;;6.20;99.90;;;;;;8454601;28;19939;-74
2024/01/23 06:46:27;;;;;;;;;;;6.10;99.90;;;;;;8464863;28;20018;-74
2024/01/23 06:50:29;;;;;;;;;;;6.10;99.90;;;;;;8459858;28;19935;-74
2024/01/23 06:54:31;;;;;;;;;;;6.10;99.90;;;;;;8458012;28;19962;-74
2024/01/23 06:58:32;;;;;;;;;;;6.00;99.90;;;;;;8440074;28;19928;-74
2024/01/23 07:02:34;;;;;;;;;;;5.90;99.90;;;;;;8454909;28;20239;-74
2024/01/23 07:06:36;;;;;;;;;;;5.90;99.90;;;;;;8463101;28;19953;-74
2024/01/23 07:10:37;;;;;;;;;;;5.80;99.90;;;;;;8458454;27;19977;-74
2024/01/23 07:14:39;;;;;;;;;;;5.70;99.90;;;;;;8470487;27;19931;-74
2024/01/23 07:18:41;;;;;;;;;;;5.70;99.90;;;;;;8468564;27;19934;-74
2024/01/23 07:22:43;;;;;;;;;;;5.60;99.90;;;;;;8441148;28;19924;-74
2024/01/23 07:26:44;;;;;;;;;;;5.60;99.90;;;;;;8456828;27;19928;-74
2024/01/23 07:30:46;;;;;;;;;;;5.60;99.90;;;;;;8462841;27;19978;-74
2024/01/23 07:34:48;;;;;;;;;;;5.50;99.90;;;;;;8465060;27;20332;-74
2024/01/23 07:38:50;;;;;;;;;;;5.50;99.90;;;;;;8448888;27;19967;-74
2024/01/23 07:42:51;;;;;;;;;;;5.40;99.90;;;;;;8454517;28;19927;-74
2024/01/23 07:46:53;;;;;;;;;;;5.30;99.90;;;;;;8479056;27;20325;-74
2024/01/23 07:50:55;;;;;;;;;;;5.20;99.90;;;;;;8462307;28;20445;-74
2024/01/23 07:54:58;;;;;;;;;;;5.10;99.90;;;;;;8452621;28;19928;-74
2024/01/23 07:58:59;;;;;;;;;;;5.00;99.90;;;;;;8454530;27;19923;-74
2024/01/23 08:03:01;;;;;;;;;;;5.00;99.90;;;;;;8434920;27;19927;-74
2024/01/23 08:07:03;;;;;;;;;;;5.00;99.90;;;;;;8449584;27;19923;-74
2024/01/23 08:11:05;;;;;;;;;;;5.00;99.90;;;;;;8453714;27;19970;-74
2024/01/23 08:15:07;;;;;;;;;;;5.00;99.90;;;;;;8449192;27;20459;-74
2024/01/23 08:19:09;;;;;;;;;;;5.00;99.90;;;;;;8455604;27;19931;-74
2024/01/23 08:23:11;;;;;;;;;;;5.10;99.90;;;;;;8457243;27;19931;-74
2024/01/23 08:27:13;;;;;;;;;;;5.10;99.90;;;;;;8428964;28;19963;-73
2024/01/23 08:31:15;;;;;;;;;;;5.20;99.90;;;;;;8456204;27;19931;-74
2024/01/23 08:35:17;;;;;;;;;;;5.20;99.90;;;;;;8441862;27;20328;-74
2024/01/23 08:39:19;;;;;;;;;;;5.30;99.90;;;;;;8450310;27;19924;-74
2024/01/23 08:43:21;;;;;;;;;;;5.30;99.90;;;;;;8457540;27;19928;-74
2024/01/23 08:47:22;;;;;;;;;;;5.40;99.90;;;;;;8456032;27;20329;-74
2024/01/23 08:51:24;;;;;;;;;;;5.40;99.90;;;;;;8457957;27;19931;-74
2024/01/23 08:55:27;;;;;;;;;;;5.50;99.90;;;;;;8442867;27;19954;-74
2024/01/23 08:59:29;;;;;;;;;;;5.60;99.90;;;;;;8440743;28;19924;-74
2024/01/23 09:03:31;;;;;;;;;;;5.70;99.90;;;;;;8450918;28;19924;-74
2024/01/23 09:07:32;;;;;;;;;;;5.80;99.90;;;;;;8434610;28;20168;-74
2024/01/23 09:11:34;;;;;;;;;;;5.90;99.90;;;;;;8452948;27;19924;-74
2024/01/23 09:15:36;;;;;;;;;;;5.90;99.90;;;;;;8449955;28;20466;-74
2024/01/23 09:19:38;;;;;;;;;;;6.00;99.90;;;;;;8462302;27;19932;-74
2024/01/23 09:23:40;;;;;;;;;;;6.10;99.90;;;;;;8461547;28;19924;-73
2024/01/23 09:27:42;;;;;;;;;;;6.30;99.90;;;;;;8442539;28;20362;-73
2024/01/23 09:31:49;;;;;;;;;;;6.60;99.90;;;;;;8458419;28;19924;-73
2024/01/23 09:35:51;;;;;;;;;;;6.80;99.90;;;;;;8453244;28;19924;-74
2024/01/23 09:39:53;;;;;;;;;;;6.90;99.90;;;;;;8458748;28;20291;-73
2024/01/23 09:43:55;;;;;;;;;;;7.00;99.90;;;;;;8441892;28;20018;-73
2024/01/23 09:47:57;;;;;;;;;;;7.10;99.90;;;;;;8450978;28;19924;-74
2024/01/23 09:52:02;;;;;;;;;;;7.20;99.90;;;;;;8456048;28;19928;-73
2024/01/23 09:56:04;;;;;;;;;;;7.10;99.90;;;;;;8458083;28;19924;-74
2024/01/23 10:00:07;;;;;;;;;;;7.10;99.90;;;;;;8460494;28;19959;-74
2024/01/23 10:04:09;;;;;;;;;;;7.10;99.90;;;;;;8462462;27;19984;-74
2024/01/23 10:08:12;;;;;;;;;;;7.20;99.90;;;;;;8463902;27;19977;-74
2024/01/23 10:12:14;;;;;;;;;;;7.20;99.90;;;;;;8438734;28;19927;-74
2024/01/23 10:16:16;;;;;;;;;;;7.30;99.90;;;;;;8439387;27;19927;-74
2024/01/23 10:20:18;;;;;;;;;;;7.40;99.90;;;;;;8437830;28;19935;-74
2024/01/23 10:24:20;;;;;;;;;;;7.60;99.90;;;;;;8443519;28;20375;-73
2024/01/23 10:28:22;;;;;;;;;;;7.70;99.90;;;;;;8438117;27;20375;-74
2024/01/23 10:32:24;;;;;;;;;;;7.80;99.90;;;;;;8456300;28;19924;-73
2024/01/23 10:36:26;;;;;;;;;;;8.00;99.90;;;;;;8440643;28;19924;-73
2024/01/23 10:40:27;;;;;;;;;;;8.10;99.90;;;;;;8459143;28;19932;-74
2024/01/23 10:44:30;;;;;;;;;;;8.20;99.90;;;;;;8464438;27;19969;-73
2024/01/23 10:48:33;;;;;;;;;;;8.20;99.90;;;;;;8465816;27;19924;-73
2024/01/23 10:52:39;;;;;;;;;;;8.20;99.90;;;;;;8468398;28;19978;-73
2024/01/23 10:56:43;;;;;;;;;;;8.30;99.90;;;;;;8464609;28;19984;-74
2024/01/23 11:00:46;;;;;;;;;;;8.50;99.90;;;;;;8460252;27;19928;-74
2024/01/23 11:04:49;;;;;;;;;;;8.50;99.90;;;;;;8467982;27;20399;-74
2024/01/23 11:08:58;;;;;;;;;;;8.50;99.90;;;;;;8457219;28;19954;-74
2024/01/23 11:13:06;;;;;;;;;;;8.60;99.90;;;;;;8442409;28;19934;-74
2024/01/23 11:17:09;;;;;;;;;;;8.70;99.90;;;;;;8466278;28;19928;-74
2024/01/23 11:21:11;;;;;;;;;;;8.90;99.90;;;;;;8461114;28;19927;-75
2024/01/23 11:25:16;;;;;;;;;;;8.90;99.90;;;;;;8457737;28;20015;-74
2024/01/23 11:29:18;;;;;;;;;;;8.90;99.90;;;;;;8462300;27;20374;-74
2024/01/23 11:33:23;;;;;;;;;;;8.80;99.90;;;;;;8462244;27;20040;-74
2024/01/23 11:37:31;;;;;;;;;;;8.70;99.90;;;;;;8466015;28;19924;-74
2024/01/23 11:41:33;;;;;;;;;;;8.70;99.90;;;;;;8450117;28;19950;-74
2024/01/23 11:45:36;;;;;;;;;;;8.80;99.90;;;;;;8459520;28;19928;-74
2024/01/23 11:49:39;;;;;;;;;;;8.90;99.90;;;;;;8441803;28;19967;-74
2024/01/23 11:53:41;;;;;;;;;;;8.80;99.90;;;;;;8439359;27;19968;-74
2024/01/23 11:57:43;;;;;;;;;;;8.80;99.90;;;;;;8462370;28;19954;-74
2024/01/23 12:01:45;;;;;;;;;;;9.00;99.90;;;;;;8469898;27;19962;-74
2024/01/23 12:05:47;;;;;;;;;;;9.10;99.90;;;;;;8460273;27;19930;-74
2024/01/23 12:09:49;;;;;;;;;;;9.20;99.90;;;;;;8447884;28;19928;-75
2024/01/23 12:18:35;;;;;;;;;;;9.80;99.90;;;;;;8463721;28;19924;-74
2024/01/23 12:22:37;;;;;;;;;;;10.10;99.90;;;;;;8463296;28;19974;-74
2024/01/23 12:26:39;;;;;;;;;;;10.50;99.90;;;;;;8448988;28;20375;-75
2024/01/23 12:30:42;;;;;;;;;;;10.70;99.90;;;;;;8430509;28;20420;-74
2024/01/23 12:34:44;;;;;;;;;;;10.80;99.90;;;;;;8422720;28;20022;-74
2024/01/23 12:38:46;;;;;;;;;;;11.00;99.90;;;;;;8425920;27;19993;-74
2024/01/23 12:42:48;;;;;;;;;;;10.90;99.90;;;;;;8428336;28;20069;-74
2024/01/23 12:46:50;;;;;;;;;;;10.80;99.90;;;;;;8431777;28;20326;-75
2024/01/23 12:50:53;;;;;;;;;;;10.30;99.90;;;;;;8425351;28;19932;-74
2024/01/23 12:54:55;;;;;;;;;;;9.90;99.90;;;;;;8421448;28;19955;-75
2024/01/23 12:58:57;;;;;;;;;;;9.60;99.90;;;;;;8420551;28;19924;-74
2024/01/23 13:02:59;;;;;;;;;;;9.40;99.90;;;;;;8423705;28;19924;-74
2024/01/23 13:07:01;;;;;;;;;;;9.30;99.90;;;;;;8428001;28;19955;-74
2024/01/23 13:11:03;;;;;;;;;;;9.30;99.90;;;;;;8420458;28;19928;-75
2024/01/23 13:15:05;;;;;;;;;;;9.20;99.90;;;;;;8439165;28;19935;-74
2024/01/23 13:19:06;;;;;;;;;;;9.10;99.90;;;;;;8424091;27;19932;-74
2024/01/23 13:23:09;;;;;;;;;;;9.00;99.90;;;;;;8438712;28;20291;-75
2024/01/23 13:27:11;;;;;;;;;;;9.00;99.90;;;;;;8435186;28;19923;-74
2024/01/23 13:31:15;;;;;;;;;;;8.90;99.90;;;;;;8437816;28;19935;-75
2024/01/23 13:35:17;;;;;;;;;;;8.90;99.90;;;;;;8438672;28;19924;-74
2024/01/23 13:39:19;;;;;;;;;;;8.80;99.90;;;;;;8422773;28;20409;-75
2024/01/23 13:43:20;;;;;;;;;;;8.80;99.90;;;;;;8428893;28;19962;-74
2024/01/23 13:47:22;;;;;;;;;;;8.80;99.90;;;;;;8429541;28;19932;-75
2024/01/23 13:51:30;;;;;;;;;;;8.70;99.90;;;;;;8410826;28;20183;-75
2024/01/23 13:55:32;;;;;;;;;;;8.70;99.90;;;;;;8411621;28;19924;-74
2024/01/23 13:59:33;;;;;;;;;;;8.70;99.90;;;;;;8424944;28;19974;-75
2024/01/23 14:03:35;;;;;;;;;;;8.70;99.90;;;;;;8415878;28;19935;-74
2024/01/23 14:07:39;;;;;;;;;;;8.60;99.90;;;;;;8423325;28;20341;-75
2024/01/23 14:11:41;;;;;;;;;;;8.60;99.90;;;;;;8426552;28;19923;-75
2024/01/23 14:15:43;;;;;;;;;;;8.60;99.90;;;;;;8426025;28;19924;-75
2024/01/23 14:19:46;;;;;;;;;;;8.60;99.90;;;;;;8428967;28;20386;-75
2024/01/23 14:23:47;;;;;;;;;;;8.60;99.90;;;;;;8416168;28;20022;-74
2024/01/23 14:27:52;;;;;;;;;;;8.50;99.90;;;;;;8423193;28;19932;-75
2024/01/23 14:31:54;;;;;;;;;;;8.50;99.90;;;;;;8425845;28;20001;-75
2024/01/23 14:35:57;;;;;;;;;;;8.50;99.90;;;;;;8427380;28;19927;-74
2024/01/23 14:39:59;;;;;;;;;;;8.50;99.90;;;;;;8422404;28;19924;-74
2024/01/23 14:44:00;;;;;;;;;;;8.50;99.90;;;;;;8416805;28;19974;-75
2024/01/23 14:48:02;;;;;;;;;;;8.40;99.90;;;;;;8426769;28;19996;-74
2024/01/23 14:52:04;;;;;;;;;;;8.40;99.90;;;;;;8409025;28;19950;-74
2024/01/23 14:56:06;;;;;;;;;;;8.40;99.90;;;;;;8437503;28;19924;-75
2024/01/23 15:00:11;;;;;;;;;;;8.30;99.90;;;;;;8423165;28;19932;-75
2024/01/23 15:04:14;;;;;;;;;;;8.30;99.90;;;;;;8427078;28;19924;-74
2024/01/23 15:08:16;;;;;;;;;;;8.30;99.90;;;;;;8405897;28;19979;-75
2024/01/23 15:12:18;;;;;;;;;;;8.30;99.90;;;;;;8423855;28;19924;-75
2024/01/23 15:16:19;;;;;;;;;;;8.20;99.90;;;;;;8427349;28;19974;-75
2024/01/23 15:20:21;;;;;;;;;;;8.20;99.90;;;;;;8430532;28;20448;-75
2024/01/23 15:24:23;;;;;;;;;;;8.20;99.90;;;;;;8409839;28;19924;-75
2024/01/23 15:28:25;;;;;;;;;;;8.20;99.90;;;;;;8422739;28;19969;-75
2024/01/23 15:32:27;;;;;;;;;;;8.20;99.90;;;;;;8434660;28;20375;-75
2024/01/23 15:36:30;;;;;;;;;;;8.20;99.90;;;;;;8431855;27;19936;-74
2024/01/23 15:40:33;;;;;;;;;;;8.10;99.90;;;;;;8432487;27;19940;-75
2024/01/23 15:44:36;;;;;;;;;;;8.10;99.90;;;;;;8442225;28;19934;-75
2024/01/23 15:48:37;;;;;;;;;;;8.10;99.90;;;;;;8442417;28;19935;-75
2024/01/23 16:02:46;;;;;;;;;;;8.10;99.90;;;;;;8431705;28;20295;-75
2024/01/23 16:07:07;;;;;;;;;;;8.00;99.90;;;;;;8431774;28;19928;-75
2024/01/23 16:11:08;;;;;;;;;;;8.00;99.90;;;;;;8444015;28;19986;-75
2024/01/23 16:15:10;;;;;;;;;;;8.00;99.90;;;;;;8435718;28;19988;-75
2024/01/23 16:19:13;;;;;;;;;;;8.00;99.90;;;;;;8415614;28;20352;-75
2024/01/23 16:23:15;;;;;;;;;;;8.00;99.90;;;;;;8414278;28;19939;-75
2024/01/23 16:27:18;;;;;;;;;;;8.00;99.90;;;;;;8421905;28;19935;-74
2024/01/23 16:31:20;;;;;;;;;;;8.00;99.90;;;;;;8424906;28;19958;-75
2024/01/23 16:35:22;;;;;;;;;;;8.00;99.90;;;;;;8430848;27;20344;-75
2024/01/23 16:39:24;;;;;;;;;;;8.00;99.90;;;;;;8407149;27;19924;-75
2024/01/23 16:43:26;;;;;;;;;;;8.00;99.90;;;;;;8431131;27;19970;-75
2024/01/23 16:47:28;;;;;;;;;;;8.00;99.90;;;;;;8433063;27;19976;-75
2024/01/23 16:51:29;;;;;;;;;;;8.00;99.90;;;;;;8415209;28;20225;-75
2024/01/23 16:55:31;;;;;;;;;;;8.00;99.90;;;;;;8433626;28;20018;-76
2024/01/23 16:59:33;;;;;;;;;;;8.00;99.90;;;;;;8412942;27;19935;-75
2024/01/23 17:03:35;;;;;;;;;;;7.90;99.90;;;;;;8428983;28;19938;-75
2024/01/23 17:07:36;;;;;;;;;;;7.90;99.90;;;;;;8422833;28;19931;-76
2024/01/23 17:11:39;;;;;;;;;;;7.90;99.90;;;;;;8428359;27;20190;-75
2024/01/23 17:15:40;;;;;;;;;;;7.90;99.90;;;;;;8431826;27;20531;-75
2024/01/23 17:19:42;;;;;;;;;;;7.90;99.90;;;;;;8425407;27;19931;-75
2024/01/23 17:23:44;;;;;;;;;;;7.90;99.90;;;;;;8418645;27;19930;-75
2024/01/23 17:27:49;;;;;;;;;;;7.90;99.90;;;;;;8428259;28;19928;-75
2024/01/23 17:31:51;;;;;;;;;;;7.90;99.90;;;;;;8423609;28;19985;-75
2024/01/23 17:35:52;;;;;;;;;;;7.90;99.90;;;;;;8423918;28;20429;-75
2024/01/23 17:55:11;;;;;;;;;;;8.00;99.90;;;;;;8423878;28;20009;-75
2024/01/23 17:59:14;;;;;;;;;;;8.00;99.90;;;;;;8411121;28;19931;-75
2024/01/23 18:03:16;;;;;;;;;;;8.00;99.90;;;;;;8430321;27;19924;-75
2024/01/23 18:07:18;;;;;;;;;;;8.10;99.90;;;;;;8422248;28;20394;-76
2024/01/23 18:11:21;;;;;;;;;;;8.10;99.90;;;;;;8435169;28;19991;-76
2024/01/23 18:15:23;;;;;;;;;;;8.10;99.90;;;;;;8412550;28;19928;-75
2024/01/23 18:19:24;;;;;;;;;;;8.10;99.90;;;;;;8429640;28;19924;-75
2024/01/23 18:23:26;;;;;;;;;;;8.20;99.90;;;;;;8416241;28;19928;-75
2024/01/23 18:27:31;;;;;;;;;;;8.20;99.90;;;;;;8406661;28;20387;-75
2024/01/23 18:31:33;;;;;;;;;;;8.20;99.90;;;;;;8415551;28;19973;-75
2024/01/23 18:35:35;;;;;;;;;;;8.30;99.90;;;;;;8416564;28;19928;-76
2024/01/23 18:39:36;;;;;;;;;;;8.30;99.90;;;;;;8431892;28;19935;-75
2024/01/23 18:43:38;;;;;;;;;;;8.40;99.90;;;;;;8407723;28;20386;-76
2024/01/23 18:47:40;;;;;;;;;;;8.40;99.90;;;;;;8424868;28;20290;-75
2024/01/23 18:51:42;;;;;;;;;;;8.40;99.90;;;;;;8408079;28;20398;-76
2024/01/23 18:55:43;;;;;;;;;;;8.50;99.90;;;;;;8415357;28;19966;-76
2024/01/23 18:59:45;;;;;;;;;;;8.60;99.90;;;;;;8436493;28;20357;-76
2024/01/23 19:03:47;;;;;;;;;;;8.70;99.90;;;;;;8434870;28;19924;-75
2024/01/23 19:07:49;;;;;;;;;;;8.70;99.90;;;;;;8441300;27;19924;-75
2024/01/23 19:11:51;;;;;;;;;;;8.70;99.90;;;;;;8438233;28;19924;-76
2024/01/23 19:15:52;;;;;;;;;;;8.80;99.90;;;;;;8416700;28;19928;-75
2024/01/23 19:19:54;;;;;;;;;;;8.90;99.90;;;;;;8427881;27;19970;-76
2024/01/23 19:23:56;;;;;;;;;;;9.00;99.90;;;;;;8433134;28;19943;-77
2024/01/23 19:27:58;;;;;;;;;;;9.00;99.90;;;;;;8436173;28;20006;-76
2024/01/23 19:31:59;;;;;;;;;;;9.10;99.90;;;;;;8433513;28;20391;-76
2024/01/23 19:36:03;;;;;;;;;;;9.10;99.90;;;;;;8446850;28;19935;-76
2024/01/23 19:40:42;;;;;;;;;;;9.10;99.90;;;;;;8446246;28;19932;-76
2024/01/23 19:44:44;;;;;;;;;;;9.20;99.90;;;;;;8440129;28;19930;-76
2024/01/23 19:48:46;;;;;;;;;;;9.30;99.90;;;;;;8441828;27;20581;-76
2024/01/23 19:52:48;;;;;;;;;;;9.30;99.90;;;;;;8424894;28;19928;-76
2024/01/23 19:56:49;;;;;;;;;;;9.40;99.90;;;;;;8426172;28;20344;-76
2024/01/23 20:00:51;;;;;;;;;;;9.40;99.90;;;;;;8418765;28;19928;-77
2024/01/23 20:04:53;;;;;;;;;;;9.60;99.90;;;;;;8438481;28;19932;-77
2024/01/23 20:08:55;;;;;;;;;;;9.60;99.90;;;;;;8430651;28;19924;-77
2024/01/23 20:12:56;;;;;;;;;;;9.70;99.90;;;;;;8426428;27;20350;-76
2024/01/23 20:16:58;;;;;;;;;;;9.80;99.90;;;;;;8434043;28;20574;-77
2024/01/23 20:26:04;;;;;;;;;;;9.90;99.90;;;;;;8435384;28;19953;-77
2024/01/23 20:30:06;;;;;;;;;;;10.00;99.90;;;;;;8428615;28;19931;-77
2024/01/23 20:34:08;;;;;;;;;;;10.00;99.90;;;;;;8431851;28;19939;-77
2024/01/23 20:38:10;;;;;;;;;;;10.10;99.90;;;;;;8435944;28;20062;-77
2024/01/23 20:42:11;;;;;;;;;;;10.20;99.90;;;;;;8419287;28;19954;-77
2024/01/23 20:46:14;;;;;;;;;;;10.30;99.90;;;;;;8424420;28;19932;-77
2024/01/23 20:50:16;;;;;;;;;;;10.40;99.90;;;;;;8421639;28;19928;-77
2024/01/23 20:54:17;;;;;;;;;;;10.40;99.90;;;;;;8430151;27;19932;-77
2024/01/23 20:58:20;;;;;;;;;;;10.50;99.90;;;;;;8433508;28;19996;-77
2024/01/23 21:02:22;;;;;;;;;;;10.50;99.90;;;;;;8434556;28;20379;-76
2024/01/23 21:06:24;;;;;;;;;;;10.60;99.90;;;;;;8433094;28;19938;-77
2024/01/23 21:10:27;;;;;;;;;;;10.60;99.90;;;;;;8405823;28;20564;-76
2024/01/23 21:14:29;;;;;;;;;;;10.70;99.90;;;;;;8431636;28;19935;-76
2024/01/23 21:18:31;;;;;;;;;;;10.70;99.90;;;;;;8429557;28;19931;-76
2024/01/23 21:22:33;;;;;;;;;;;10.80;99.90;;;;;;8416896;27;19940;-77
2024/01/23 21:26:34;;;;;;;;;;;10.90;99.90;;;;;;8414354;28;19997;-77
2024/01/23 21:35:40;;;;;;;;;;;11.00;99.90;;;;;;8424873;28;20279;-76
2024/01/23 21:39:41;;;;;;;;;;;11.10;99.90;;;;;;8425202;28;19935;-76
2024/01/23 21:43:43;;;;;;;;;;;11.10;99.90;;;;;;8430268;28;20261;-76
2024/01/23 21:47:45;;;;;;;;;;;11.20;99.90;;;;;;8432044;28;19928;-77
2024/01/23 21:51:47;;;;;;;;;;;11.40;99.90;;;;;;8429563;28;19932;-77
2024/01/23 21:55:49;;;;;;;;;;;11.40;99.90;;;;;;8429125;28;19924;-77
2024/01/23 21:59:51;;;;;;;;;;;11.50;99.90;;;;;;8429175;28;19924;-76
2024/01/23 22:03:52;;;;;;;;;;;11.60;99.90;;;;;;8432881;28;19924;-76
2024/01/23 22:07:55;;;;;;;;;;;11.60;99.90;;;;;;8450303;28;19931;-76
2024/01/23 22:11:57;;;;;;;;;;;11.70;99.90;;;;;;8459016;28;19924;-76
2024/01/23 22:15:58;;;;;;;;;;;11.70;99.90;;;;;;8457566;28;19928;-77
2024/01/23 22:20:00;;;;;;;;;;;11.80;99.90;;;;;;8436908;28;19971;-77
2024/01/23 22:24:02;;;;;;;;;;;11.80;99.90;;;;;;8439621;28;19932;-77
2024/01/23 22:28:04;;;;;;;;;;;11.90;99.90;;;;;;8446603;28;19963;-77
2024/01/23 22:32:06;;;;;;;;;;;11.90;99.90;;;;;;8440389;28;19985;-77
2024/01/23 22:36:08;;;;;;;;;;;12.00;99.90;;;;;;8455157;28;19924;-77
2024/01/23 22:40:10;;;;;;;;;;;12.00;99.90;;;;;;8446836;28;19924;-76
2024/01/23 22:44:12;;;;;;;;;;;12.00;99.90;;;;;;8443949;28;20272;-77
2024/01/23 22:48:14;;;;;;;;;;;12.10;99.90;;;;;;8466282;27;19924;-77
2024/01/23 22:52:17;;;;;;;;;;;12.10;99.90;;;;;;8451019;28;20380;-76
2024/01/23 22:56:18;;;;;;;;;;;12.10;99.90;;;;;;8450127;28;20298;-76
2024/01/23 23:00:21;;;;;;;;;;;12.10;99.90;;;;;;8445570;28;20259;-77
2024/01/23 23:04:35;;;;;;;;;;;12.10;99.90;;;;;;8451366;28;20045;-76
2024/01/23 23:08:37;;;;;;;;;;;12.10;99.90;;;;;;8461108;27;20537;-76
2024/01/23 23:12:39;;;;;;;;;;;12.20;99.90;;;;;;8470183;28;19935;-76
2024/01/23 23:16:44;;;;;;;;;;;12.30;99.90;;;;;;8468222;28;19939;-77
2024/01/23 23:20:47;;;;;;;;;;;12.30;99.90;;;;;;8468540;27;19928;-76
2024/01/23 23:24:48;;;;;;;;;;;12.40;99.90;;;;;;8448366;28;20374;-76
2024/01/23 23:28:50;;;;;;;;;;;12.40;99.90;;;;;;8463847;27;19924;-76
2024/01/23 23:32:52;;;;;;;;;;;12.40;99.90;;;;;;8470112;28;20327;-77
2024/01/23 23:36:53;;;;;;;;;;;12.50;99.90;;;;;;8459465;28;20382;-77
2024/01/23 23:45:59;;;;;;;;;;;12.60;99.90;;;;;;8464255;28;19914;-77
2024/01/23 23:50:00;;;;;;;;;;;12.70;99.90;;;;;;8467890;27;20517;-76
2024/01/23 23:54:02;;;;;;;;;;;12.70;99.90;;;;;;8456586;28;20460;-76
2024/01/23 23:58:04;;;;;;;;;;;12.70;99.90;;;;;;8446251;28;20432;-76
